createdAt,value
2017-12-16T00:01:02.201Z,0
2017-12-16T00:02:12.301Z,0
2017-12-16T00:03:22.454Z,0
2017-12-16T00:04:32.331Z,0
2017-12-16T00:05:43.089Z,0
2017-12-16T00:06:52.670Z,0
2017-12-16T00:08:02.495Z,0
2017-12-16T00:09:12.020Z,0
2017-12-16T00:10:23.135Z,0
2017-12-16T00:11:33.247Z,0
2017-12-16T00:12:43.373Z,0
2017-12-16T00:13:53.181Z,0
2017-12-16T00:15:04.469Z,0
2017-12-16T00:16:15.156Z,0
2017-12-16T00:17:26.590Z,0
2017-12-16T00:18:37.663Z,0
2017-12-16T00:19:47.474Z,0
2017-12-16T00:20:57.548Z,0
2017-12-16T00:22:07.433Z,0
2017-12-16T00:23:17.508Z,0
2017-12-16T00:24:27.941Z,0
2017-12-16T00:25:38.000Z,0
2017-12-16T00:26:48.048Z,0
2017-12-16T00:27:57.848Z,0
2017-12-16T00:29:07.643Z,0
2017-12-16T00:30:17.745Z,0
2017-12-16T00:31:27.816Z,0
2017-12-16T00:32:37.885Z,0
2017-12-16T00:33:47.956Z,0
2017-12-16T00:34:58.015Z,0
2017-12-16T00:36:08.073Z,0
2017-12-16T00:37:18.141Z,0
2017-12-16T00:38:27.926Z,0
2017-12-16T00:39:38.002Z,0
2017-12-16T00:40:48.049Z,0
2017-12-16T00:41:58.111Z,0
2017-12-16T00:43:07.905Z,0
2017-12-16T00:44:17.702Z,0
2017-12-16T00:45:27.773Z,0
2017-12-16T00:46:37.315Z,0
2017-12-16T00:47:47.381Z,0
2017-12-16T00:48:57.184Z,0
2017-12-16T00:50:07.230Z,0
2017-12-16T00:51:17.028Z,0
2017-12-16T00:52:27.095Z,0
2017-12-16T00:53:37.209Z,0
2017-12-16T00:54:47.002Z,0
2017-12-16T00:55:57.043Z,0
2017-12-16T00:57:06.840Z,0
2017-12-16T00:58:16.890Z,0
2017-12-16T00:59:26.761Z,0
2017-12-16T01:00:36.545Z,0
2017-12-16T01:01:47.824Z,0
2017-12-16T01:02:57.868Z,0
2017-12-16T01:04:07.936Z,0
2017-12-16T01:05:17.743Z,0
2017-12-16T01:06:27.854Z,0
2017-12-16T01:07:37.437Z,0
2017-12-16T01:08:47.232Z,0
2017-12-16T01:09:57.275Z,0
2017-12-16T01:11:07.073Z,0
2017-12-16T01:12:16.873Z,0
2017-12-16T01:13:26.694Z,0
2017-12-16T01:14:37.254Z,0
2017-12-16T01:15:47.312Z,0
2017-12-16T01:16:57.373Z,0
2017-12-16T01:18:07.440Z,0
2017-12-16T01:19:17.488Z,0
2017-12-16T01:20:27.553Z,0
2017-12-16T01:21:37.609Z,0
2017-12-16T01:22:47.670Z,0
2017-12-16T01:23:58.466Z,0
2017-12-16T01:25:08.527Z,0
2017-12-16T01:26:18.581Z,0
2017-12-16T01:27:28.647Z,0
2017-12-16T01:28:38.463Z,0
2017-12-16T01:29:48.506Z,0
2017-12-16T01:30:58.569Z,0
2017-12-16T01:32:08.624Z,0
2017-12-16T01:33:18.706Z,0
2017-12-16T01:34:28.258Z,0
2017-12-16T01:35:38.312Z,0
2017-12-16T01:36:48.130Z,0
2017-12-16T01:37:57.905Z,0
2017-12-16T01:39:07.717Z,0
2017-12-16T01:40:17.814Z,0
2017-12-16T01:41:27.856Z,0
2017-12-16T01:42:37.395Z,0
2017-12-16T01:43:47.453Z,0
2017-12-16T01:44:57.517Z,0
2017-12-16T01:46:07.306Z,0
2017-12-16T01:47:17.346Z,0
2017-12-16T01:48:27.132Z,0
2017-12-16T01:49:37.246Z,0
2017-12-16T01:50:47.301Z,0
2017-12-16T01:51:57.416Z,0
2017-12-16T01:53:07.215Z,0
2017-12-16T01:54:16.736Z,0
2017-12-16T01:55:26.788Z,0
2017-12-16T01:56:36.845Z,0
2017-12-16T01:57:46.973Z,0
2017-12-16T01:58:57.028Z,0
2017-12-16T02:00:07.078Z,0
2017-12-16T02:01:17.124Z,0
2017-12-16T02:02:27.183Z,0
2017-12-16T02:03:37.232Z,0
2017-12-16T02:04:47.037Z,0
2017-12-16T02:05:56.839Z,0
2017-12-16T02:07:06.635Z,0
2017-12-16T02:08:16.423Z,0
2017-12-16T02:09:26.274Z,0
2017-12-16T02:10:36.315Z,0
2017-12-16T02:11:46.363Z,0
2017-12-16T02:12:56.169Z,0
2017-12-16T02:14:05.435Z,0
2017-12-16T02:15:15.591Z,0
2017-12-16T02:16:25.648Z,0
2017-12-16T02:17:35.182Z,0
2017-12-16T02:18:45.234Z,0
2017-12-16T02:19:55.040Z,0
2017-12-16T02:21:05.089Z,0
2017-12-16T02:22:14.620Z,0
2017-12-16T02:23:24.416Z,0
2017-12-16T02:24:34.471Z,0
2017-12-16T02:25:44.528Z,0
2017-12-16T02:26:54.581Z,0
2017-12-16T02:28:04.634Z,0
2017-12-16T02:29:14.687Z,0
2017-12-16T02:30:24.732Z,0
2017-12-16T02:31:34.803Z,0
2017-12-16T02:32:45.054Z,0
2017-12-16T02:33:55.107Z,0
2017-12-16T02:35:04.648Z,0
2017-12-16T02:36:14.714Z,0
2017-12-16T02:37:24.509Z,0
2017-12-16T02:38:34.574Z,0
2017-12-16T02:39:43.580Z,0
2017-12-16T02:40:53.374Z,0
2017-12-16T02:42:03.161Z,0
2017-12-16T02:43:12.955Z,0
2017-12-16T02:44:22.779Z,0
2017-12-16T02:45:32.895Z,0
2017-12-16T02:46:42.948Z,0
2017-12-16T02:47:52.762Z,0
2017-12-16T02:49:02.825Z,0
2017-12-16T02:50:12.876Z,0
2017-12-16T02:51:22.663Z,0
2017-12-16T02:52:32.733Z,0
2017-12-16T02:53:42.526Z,0
2017-12-16T02:54:52.322Z,0
2017-12-16T02:56:02.166Z,0
2017-12-16T02:57:11.169Z,0
2017-12-16T02:58:21.215Z,0
2017-12-16T02:59:31.274Z,0
2017-12-16T03:00:41.339Z,0
2017-12-16T03:01:51.224Z,0
2017-12-16T03:03:01.275Z,0
2017-12-16T03:34:32.938Z,0
2017-12-16T03:35:42.983Z,0
2017-12-16T03:36:52.501Z,0
2017-12-16T03:38:02.095Z,0
2017-12-16T03:39:11.868Z,0
2017-12-16T03:40:21.704Z,0
2017-12-16T03:41:31.240Z,0
2017-12-16T03:42:41.296Z,0
2017-12-16T03:43:51.339Z,0
2017-12-16T03:45:01.390Z,0
2017-12-16T03:46:11.234Z,0
2017-12-16T03:47:21.280Z,0
2017-12-16T03:48:31.349Z,0
2017-12-16T03:49:41.167Z,0
2017-12-16T03:50:51.210Z,0
2017-12-16T03:52:01.315Z,0
2017-12-16T03:53:11.357Z,0
2017-12-16T03:54:21.143Z,0
2017-12-16T03:55:31.199Z,0
2017-12-16T03:56:40.990Z,0
2017-12-16T03:57:51.043Z,0
2017-12-16T03:59:01.100Z,0
2017-12-16T04:00:11.151Z,0
2017-12-16T04:01:21.212Z,0
2017-12-16T04:02:31.263Z,0
2017-12-16T04:03:41.363Z,0
2017-12-16T04:04:51.163Z,0
2017-12-16T04:06:01.211Z,0
2017-12-16T04:07:11.012Z,0
2017-12-16T04:08:20.802Z,0
2017-12-16T04:09:30.659Z,0
2017-12-16T04:10:40.715Z,0
2017-12-16T04:11:50.784Z,0
2017-12-16T04:13:00.570Z,0
2017-12-16T04:14:10.377Z,0
2017-12-16T04:15:20.160Z,0
2017-12-16T04:16:30.216Z,0
2017-12-16T04:17:40.278Z,0
2017-12-16T04:18:49.815Z,0
2017-12-16T04:19:59.602Z,0
2017-12-16T04:21:09.702Z,0
2017-12-16T04:22:19.554Z,0
2017-12-16T04:23:29.610Z,0
2017-12-16T04:24:39.128Z,0
2017-12-16T04:25:48.911Z,0
2017-12-16T04:26:59.026Z,0
2017-12-16T04:28:09.087Z,0
2017-12-16T04:29:18.866Z,0
2017-12-16T04:30:28.662Z,0
2017-12-16T04:31:38.441Z,0
2017-12-16T04:32:48.280Z,0
2017-12-16T04:33:57.548Z,0
2017-12-16T04:35:07.088Z,0
2017-12-16T04:36:16.868Z,0
2017-12-16T04:37:26.927Z,0
2017-12-16T04:38:36.721Z,0
2017-12-16T04:39:46.509Z,0
2017-12-16T04:40:56.552Z,0
2017-12-16T04:42:06.336Z,0
2017-12-16T04:43:16.137Z,0
2017-12-16T04:44:25.928Z,0
2017-12-16T04:45:35.993Z,0
2017-12-16T04:46:45.847Z,0
2017-12-16T04:47:55.634Z,0
2017-12-16T04:49:05.424Z,0
2017-12-16T04:50:15.276Z,0
2017-12-16T04:51:25.065Z,0
2017-12-16T04:52:34.851Z,0
2017-12-16T04:53:44.898Z,0
2017-12-16T04:54:54.718Z,0
2017-12-16T04:56:04.760Z,0
2017-12-16T04:57:14.818Z,0
2017-12-16T04:58:24.886Z,0
2017-12-16T04:59:34.664Z,0
2017-12-16T05:00:44.712Z,0
2017-12-16T05:01:54.764Z,0
2017-12-16T05:03:04.826Z,0
2017-12-16T05:04:14.880Z,0
2017-12-16T05:05:24.679Z,0
2017-12-16T05:06:34.729Z,0
2017-12-16T05:07:44.793Z,0
2017-12-16T05:08:54.909Z,0
2017-12-16T05:10:04.731Z,0
2017-12-16T05:11:14.786Z,0
2017-12-16T05:12:24.850Z,0
2017-12-16T05:13:34.892Z,0
2017-12-16T05:14:44.683Z,0
2017-12-16T05:15:54.491Z,0
2017-12-16T05:17:04.544Z,0
2017-12-16T05:18:14.340Z,0
2017-12-16T05:19:24.425Z,0
2017-12-16T05:20:34.223Z,0
2017-12-16T05:21:44.021Z,0
2017-12-16T05:22:54.078Z,0
2017-12-16T05:24:03.863Z,0
2017-12-16T05:25:13.654Z,0
2017-12-16T05:26:23.191Z,0
2017-12-16T05:27:33.252Z,0
2017-12-16T05:28:43.297Z,0
2017-12-16T05:29:53.107Z,0
2017-12-16T05:31:02.902Z,0
2017-12-16T05:32:12.960Z,0
2017-12-16T05:33:23.009Z,0
2017-12-16T05:34:32.803Z,0
2017-12-16T05:35:42.845Z,0
2017-12-16T05:36:52.912Z,0
2017-12-16T05:38:02.961Z,0
2017-12-16T05:39:13.020Z,0
2017-12-16T05:40:23.074Z,0
2017-12-16T05:41:32.601Z,0
2017-12-16T05:42:42.660Z,0
2017-12-16T05:43:52.457Z,0
2017-12-16T05:45:02.230Z,0
2017-12-16T05:46:12.006Z,0
2017-12-16T05:47:21.793Z,0
2017-12-16T05:48:31.570Z,0
2017-12-16T05:49:41.610Z,0
2017-12-16T05:50:51.401Z,0
2017-12-16T05:52:01.457Z,0
2017-12-16T05:53:11.233Z,0
2017-12-16T05:54:22.390Z,0
2017-12-16T05:55:32.179Z,0
2017-12-16T05:56:41.966Z,0
2017-12-16T05:57:51.751Z,0
2017-12-16T05:59:01.537Z,0
2017-12-16T06:00:11.323Z,0
2017-12-16T06:01:21.366Z,0
2017-12-16T06:02:31.425Z,0
2017-12-16T06:03:41.205Z,0
2017-12-16T06:04:51.264Z,0
2017-12-16T06:06:01.368Z,0
2017-12-16T06:07:11.421Z,0
2017-12-16T06:08:20.959Z,0
2017-12-16T06:09:31.007Z,0
2017-12-16T06:10:41.048Z,0
2017-12-16T06:11:51.140Z,0
2017-12-16T06:13:00.928Z,0
2017-12-16T06:14:10.999Z,0
2017-12-16T06:15:21.046Z,0
2017-12-16T06:16:31.156Z,0
2017-12-16T06:17:41.215Z,0
2017-12-16T06:18:51.284Z,0
2017-12-16T06:20:01.405Z,0
2017-12-16T06:21:11.463Z,0
2017-12-16T06:22:21.258Z,0
2017-12-16T06:23:31.038Z,0
2017-12-16T06:24:41.089Z,0
2017-12-16T06:25:51.135Z,0
2017-12-16T06:27:00.948Z,0
2017-12-16T06:28:11.004Z,0
2017-12-16T06:29:21.135Z,0
2017-12-16T06:30:31.188Z,0
2017-12-16T06:31:40.978Z,0
2017-12-16T06:32:51.021Z,0
2017-12-16T06:34:01.085Z,0
2017-12-16T06:35:10.879Z,0
2017-12-16T06:36:20.960Z,0
2017-12-16T06:37:31.013Z,0
2017-12-16T06:38:40.809Z,0
2017-12-16T06:39:50.612Z,0
2017-12-16T06:41:00.649Z,0
2017-12-16T06:42:10.426Z,0
2017-12-16T06:43:20.464Z,0
2017-12-16T06:44:30.506Z,0
2017-12-16T06:45:40.563Z,5
2017-12-16T06:46:50.393Z,5
2017-12-16T06:48:00.185Z,5
2017-12-16T06:49:09.726Z,5
2017-12-16T06:50:19.783Z,5
2017-12-16T06:51:29.591Z,5
2017-12-16T06:52:39.196Z,5
2017-12-16T06:53:48.721Z,5
2017-12-16T06:54:58.774Z,5
2017-12-16T06:56:08.831Z,10
2017-12-16T06:57:18.632Z,10
2017-12-16T06:58:28.441Z,10
2017-12-16T06:59:38.503Z,10
2017-12-16T07:00:48.580Z,10
2017-12-16T07:01:59.359Z,10
2017-12-16T07:03:09.427Z,10
2017-12-16T07:04:19.481Z,15
2017-12-16T07:05:29.007Z,15
2017-12-16T07:06:38.802Z,15
2017-12-16T07:07:48.658Z,15
2017-12-16T07:08:58.442Z,15
2017-12-16T07:10:08.271Z,15
2017-12-16T07:11:18.064Z,15
2017-12-16T07:12:28.120Z,20
2017-12-16T07:13:37.903Z,20
2017-12-16T07:14:47.519Z,20
2017-12-16T07:15:57.324Z,20
2017-12-16T07:17:07.374Z,20
2017-12-16T07:18:17.420Z,25
2017-12-16T07:19:27.473Z,25
2017-12-16T07:20:37.513Z,25
2017-12-16T07:21:47.032Z,30
2017-12-16T07:22:56.367Z,30
2017-12-16T07:24:06.204Z,30
2017-12-16T07:25:15.990Z,35
2017-12-16T07:26:26.036Z,35
2017-12-16T07:27:35.885Z,35
2017-12-16T07:28:45.940Z,35
2017-12-16T07:29:55.747Z,40
2017-12-16T07:31:06.445Z,40
2017-12-16T07:32:16.496Z,40
2017-12-16T07:33:26.353Z,40
2017-12-16T07:34:36.419Z,40
2017-12-16T07:35:46.216Z,40
2017-12-16T07:36:56.011Z,40
2017-12-16T07:38:06.082Z,45
2017-12-16T07:39:15.936Z,45
2017-12-16T07:40:25.718Z,45
2017-12-16T07:41:35.253Z,45
2017-12-16T07:42:45.042Z,45
2017-12-16T07:43:54.838Z,45
2017-12-16T07:45:04.640Z,45
2017-12-16T07:46:14.422Z,45
2017-12-16T07:47:24.474Z,50
2017-12-16T07:48:33.994Z,50
2017-12-16T07:49:43.621Z,50
2017-12-16T07:50:53.408Z,55
2017-12-16T07:52:03.203Z,55
2017-12-16T07:53:13.257Z,55
2017-12-16T07:54:23.121Z,60
2017-12-16T07:55:33.209Z,60
2017-12-16T07:56:43.276Z,60
2017-12-16T07:57:53.062Z,60
2017-12-16T07:59:02.849Z,60
2017-12-16T08:00:12.700Z,60
2017-12-16T08:01:22.239Z,60
2017-12-16T08:02:32.032Z,60
2017-12-16T08:03:41.824Z,60
2017-12-16T08:04:51.891Z,60
2017-12-16T08:06:01.687Z,55
2017-12-16T08:07:11.983Z,55
2017-12-16T08:08:21.785Z,50
2017-12-16T08:09:31.584Z,50
2017-12-16T08:10:41.394Z,45
2017-12-16T08:11:51.442Z,45
2017-12-16T08:13:01.504Z,45
2017-12-16T08:14:11.313Z,45
2017-12-16T08:15:20.838Z,40
2017-12-16T08:16:30.889Z,40
2017-12-16T08:17:41.062Z,35
2017-12-16T08:18:50.842Z,35
2017-12-16T08:20:00.891Z,35
2017-12-16T08:21:10.934Z,30
2017-12-16T08:22:20.238Z,30
2017-12-16T08:23:30.291Z,25
2017-12-16T08:24:40.095Z,30
2017-12-16T08:25:49.892Z,30
2017-12-16T08:27:00.322Z,35
2017-12-16T08:28:10.137Z,40
2017-12-16T08:29:19.960Z,40
2017-12-16T08:30:30.040Z,45
2017-12-16T08:31:40.109Z,50
2017-12-16T08:32:49.900Z,50
2017-12-16T08:33:59.750Z,50
2017-12-16T08:35:09.814Z,55
2017-12-16T08:36:19.886Z,55
2017-12-16T08:37:29.949Z,60
2017-12-16T08:38:40.011Z,65
2017-12-16T08:39:49.809Z,65
2017-12-16T08:40:59.601Z,70
2017-12-16T08:42:09.395Z,70
2017-12-16T08:43:19.239Z,70
2017-12-16T08:44:28.770Z,75
2017-12-16T08:45:38.841Z,70
2017-12-16T08:46:48.655Z,70
2017-12-16T08:47:58.494Z,70
2017-12-16T08:49:08.030Z,70
2017-12-16T08:50:18.103Z,75
2017-12-16T08:51:27.887Z,75
2017-12-16T08:52:37.948Z,80
2017-12-16T08:53:47.485Z,85
2017-12-16T08:54:57.555Z,80
2017-12-16T08:56:07.358Z,80
2017-12-16T08:57:17.150Z,80
2017-12-16T08:58:27.207Z,80
2017-12-16T08:59:37.272Z,80
2017-12-16T09:00:47.101Z,80
2017-12-16T09:01:57.160Z,80
2017-12-16T09:03:07.222Z,80
2017-12-16T09:04:17.341Z,80
2017-12-16T09:05:27.447Z,75
2017-12-16T09:06:37.528Z,80
2017-12-16T09:07:47.324Z,75
2017-12-16T09:08:57.390Z,70
2017-12-16T09:10:07.458Z,60
2017-12-16T09:11:17.255Z,60
2017-12-16T09:12:28.312Z,55
2017-12-16T09:13:38.108Z,55
2017-12-16T09:14:48.179Z,55
2017-12-16T09:15:58.235Z,55
2017-12-16T09:17:08.338Z,60
2017-12-16T09:18:18.391Z,55
2017-12-16T09:19:27.671Z,55
2017-12-16T09:20:37.212Z,55
2017-12-16T09:21:47.289Z,60
2017-12-16T09:22:57.345Z,70
2017-12-16T09:24:07.164Z,75
2017-12-16T09:25:16.980Z,75
2017-12-16T09:26:26.781Z,75
2017-12-16T09:27:36.595Z,70
2017-12-16T09:28:46.822Z,65
2017-12-16T09:29:56.884Z,60
2017-12-16T09:31:06.961Z,60
2017-12-16T09:32:17.041Z,60
2017-12-16T09:33:26.830Z,65
2017-12-16T09:34:36.936Z,70
2017-12-16T09:35:46.975Z,75
2017-12-16T09:36:58.284Z,80
2017-12-16T09:38:08.098Z,80
2017-12-16T09:39:18.159Z,85
2017-12-16T09:40:28.296Z,85
2017-12-16T09:41:37.824Z,90
2017-12-16T09:42:47.358Z,85
2017-12-16T09:43:57.163Z,85
2017-12-16T09:45:07.281Z,85
2017-12-16T09:46:17.396Z,85
2017-12-16T09:47:26.929Z,85
2017-12-16T09:48:36.981Z,90
2017-12-16T09:49:47.056Z,90
2017-12-16T09:50:57.133Z,90
2017-12-16T09:52:07.243Z,90
2017-12-16T09:53:17.035Z,90
2017-12-16T09:54:27.969Z,85
2017-12-16T09:55:37.776Z,80
2017-12-16T09:56:47.552Z,80
2017-12-16T09:57:57.107Z,85
2017-12-16T09:59:06.911Z,85
2017-12-16T10:00:16.726Z,85
2017-12-16T10:01:26.526Z,80
2017-12-16T10:02:36.622Z,80
2017-12-16T10:03:46.415Z,80
2017-12-16T10:04:55.937Z,80
2017-12-16T10:06:05.998Z,85
2017-12-16T10:07:16.050Z,90
2017-12-16T10:08:26.126Z,95
2017-12-16T10:09:36.245Z,100
2017-12-16T10:10:46.293Z,100
2017-12-16T10:11:56.791Z,100
2017-12-16T10:13:06.855Z,100
2017-12-16T10:14:16.651Z,100
2017-12-16T10:15:26.732Z,95
2017-12-16T10:16:36.841Z,105
2017-12-16T10:17:46.906Z,100
2017-12-16T10:18:56.972Z,100
2017-12-16T10:20:07.048Z,95
2017-12-16T10:21:17.129Z,90
2017-12-16T10:22:26.981Z,80
2017-12-16T10:23:37.041Z,75
2017-12-16T10:24:47.150Z,75
2017-12-16T10:25:56.937Z,75
2017-12-16T10:27:06.993Z,80
2017-12-16T10:28:17.132Z,85
2017-12-16T10:29:27.168Z,90
2017-12-16T10:30:37.211Z,90
2017-12-16T10:31:47.277Z,95
2017-12-16T10:32:57.337Z,95
2017-12-16T10:34:07.445Z,95
2017-12-16T10:35:17.581Z,95
2017-12-16T10:36:27.635Z,95
2017-12-16T10:37:37.430Z,95
2017-12-16T10:38:47.787Z,90
2017-12-16T10:39:57.634Z,90
2017-12-16T10:41:07.441Z,90
2017-12-16T10:42:17.241Z,90
2017-12-16T10:43:27.035Z,90
2017-12-16T10:44:36.574Z,90
2017-12-16T10:45:46.696Z,90
2017-12-16T10:46:56.502Z,90
2017-12-16T10:48:06.575Z,95
2017-12-16T10:49:16.373Z,95
2017-12-16T10:50:26.453Z,95
2017-12-16T10:51:36.726Z,90
2017-12-16T10:52:46.776Z,90
2017-12-16T10:53:56.886Z,85
2017-12-16T10:55:06.786Z,80
2017-12-16T10:56:16.849Z,75
2017-12-16T10:57:26.657Z,75
2017-12-16T10:58:36.463Z,70
2017-12-16T10:59:47.129Z,70
2017-12-16T11:00:57.183Z,65
2017-12-16T11:02:07.072Z,60
2017-12-16T11:03:16.638Z,65
2017-12-16T11:04:26.437Z,70
2017-12-16T11:05:36.501Z,75
2017-12-16T11:06:46.329Z,75
2017-12-16T11:07:56.401Z,75
2017-12-16T11:09:06.507Z,75
2017-12-16T11:10:16.589Z,75
2017-12-16T11:11:26.387Z,80
2017-12-16T11:12:36.453Z,80
2017-12-16T11:13:46.250Z,85
2017-12-16T11:14:56.305Z,85
2017-12-16T11:16:06.363Z,80
2017-12-16T11:17:16.159Z,80
2017-12-16T11:18:26.225Z,75
2017-12-16T11:19:36.013Z,75
2017-12-16T11:20:45.860Z,75
2017-12-16T11:21:55.921Z,70
2017-12-16T11:23:05.710Z,65
2017-12-16T11:24:15.951Z,65
2017-12-16T11:25:25.753Z,60
2017-12-16T11:26:35.877Z,60
2017-12-16T11:27:45.926Z,60
2017-12-16T11:28:56.001Z,60
2017-12-16T11:30:06.108Z,60
2017-12-16T11:31:16.163Z,60
2017-12-16T11:32:25.951Z,65
2017-12-16T11:33:35.755Z,65
2017-12-16T11:34:45.821Z,60
2017-12-16T11:35:55.887Z,60
2017-12-16T11:37:05.958Z,65
2017-12-16T11:38:15.760Z,65
2017-12-16T11:39:26.718Z,65
2017-12-16T11:40:36.562Z,65
2017-12-16T11:41:46.896Z,70
2017-12-16T11:42:57.119Z,70
2017-12-16T11:44:07.042Z,70
2017-12-16T11:45:17.812Z,75
2017-12-16T11:46:28.696Z,75
2017-12-16T11:47:38.695Z,75
2017-12-16T11:48:48.760Z,75
2017-12-16T11:49:58.568Z,75
2017-12-16T11:51:08.622Z,75
2017-12-16T11:52:18.418Z,75
2017-12-16T11:53:28.631Z,80
2017-12-16T11:54:38.846Z,80
2017-12-16T11:55:48.917Z,80
2017-12-16T11:56:58.179Z,80
2017-12-16T11:58:07.976Z,75
2017-12-16T11:59:17.769Z,75
2017-12-16T12:00:27.582Z,75
2017-12-16T12:01:38.410Z,75
2017-12-16T12:02:48.200Z,75
2017-12-16T12:03:58.263Z,75
2017-12-16T12:05:08.078Z,75
2017-12-16T12:06:18.136Z,75
2017-12-16T12:07:28.745Z,80
2017-12-16T12:08:38.846Z,80
2017-12-16T12:09:48.965Z,75
2017-12-16T12:10:59.034Z,75
2017-12-16T12:12:10.012Z,75
2017-12-16T12:13:20.090Z,75
2017-12-16T12:14:30.156Z,75
2017-12-16T12:15:40.262Z,75
2017-12-16T12:16:50.328Z,75
2017-12-16T12:18:00.128Z,75
2017-12-16T12:19:10.217Z,75
2017-12-16T12:20:20.014Z,70
2017-12-16T12:21:29.857Z,70
2017-12-16T12:22:39.374Z,70
2017-12-16T12:23:49.189Z,70
2017-12-16T12:24:58.992Z,70
2017-12-16T12:26:08.781Z,70
2017-12-16T12:27:20.255Z,70
2017-12-16T12:28:30.324Z,70
2017-12-16T12:29:40.121Z,70
2017-12-16T12:30:49.927Z,70
2017-12-16T12:31:59.989Z,80
2017-12-16T12:33:10.120Z,95
2017-12-16T12:34:20.178Z,105
2017-12-16T12:35:31.457Z,100
2017-12-16T12:36:41.516Z,95
2017-12-16T12:37:51.581Z,90
2017-12-16T12:39:01.367Z,90
2017-12-16T12:40:11.158Z,95
2017-12-16T12:41:21.219Z,95
2017-12-16T12:42:31.338Z,90
2017-12-16T12:43:41.410Z,90
2017-12-16T12:44:51.217Z,90
2017-12-16T12:46:01.290Z,90
2017-12-16T12:47:11.094Z,80
2017-12-16T12:48:21.165Z,75
2017-12-16T12:49:30.966Z,75
2017-12-16T12:50:40.890Z,75
2017-12-16T12:51:50.687Z,75
2017-12-16T12:53:00.764Z,70
2017-12-16T12:54:10.622Z,70
2017-12-16T12:55:20.408Z,70
2017-12-16T12:56:30.268Z,70
2017-12-16T12:57:39.814Z,70
2017-12-16T12:58:49.626Z,75
2017-12-16T12:59:59.673Z,75
2017-12-16T13:01:09.764Z,80
2017-12-16T13:02:19.936Z,75
2017-12-16T13:03:30.472Z,75
2017-12-16T13:04:40.552Z,75
2017-12-16T13:05:50.599Z,70
2017-12-16T13:07:00.678Z,70
2017-12-16T13:08:10.812Z,70
2017-12-16T13:09:20.607Z,70
2017-12-16T13:10:30.681Z,70
2017-12-16T13:11:40.733Z,70
2017-12-16T13:12:50.529Z,70
2017-12-16T13:14:00.810Z,70
2017-12-16T13:15:10.622Z,70
2017-12-16T13:16:20.677Z,65
2017-12-16T13:17:30.770Z,65
2017-12-16T13:18:40.574Z,65
2017-12-16T13:19:50.154Z,65
2017-12-16T13:21:00.212Z,95
2017-12-16T13:22:09.766Z,60
2017-12-16T13:23:19.836Z,60
2017-12-16T13:24:29.886Z,55
2017-12-16T13:25:39.935Z,55
2017-12-16T13:26:49.996Z,55
2017-12-16T13:28:00.051Z,55
2017-12-16T13:29:09.858Z,55
2017-12-16T13:30:19.662Z,55
2017-12-16T13:31:29.798Z,55
2017-12-16T13:32:39.614Z,55
2017-12-16T13:33:49.181Z,50
2017-12-16T13:34:59.233Z,50
2017-12-16T13:36:09.286Z,50
2017-12-16T13:37:19.357Z,45
2017-12-16T13:38:29.154Z,45
2017-12-16T13:39:39.228Z,45
2017-12-16T13:40:49.313Z,40
2017-12-16T13:41:59.627Z,40
2017-12-16T13:43:09.794Z,40
2017-12-16T13:44:19.915Z,40
2017-12-16T13:45:29.448Z,40
2017-12-16T13:46:39.518Z,40
2017-12-16T13:47:49.712Z,40
2017-12-16T13:48:59.790Z,50
2017-12-16T13:50:09.335Z,40
2017-12-16T13:51:19.137Z,40
2017-12-16T13:52:29.204Z,65
2017-12-16T13:53:39.309Z,70
2017-12-16T13:54:49.422Z,65
2017-12-16T13:55:59.478Z,55
2017-12-16T13:57:09.647Z,55
2017-12-16T13:58:19.732Z,55
2017-12-16T13:59:29.283Z,55
2017-12-16T14:00:39.780Z,55
2017-12-16T14:01:49.927Z,55
2017-12-16T14:03:00.014Z,55
2017-12-16T14:04:09.916Z,55
2017-12-16T14:05:19.726Z,50
2017-12-16T14:06:29.841Z,40
2017-12-16T14:07:39.783Z,35
2017-12-16T14:08:49.660Z,50
2017-12-16T14:09:59.729Z,45
2017-12-16T14:11:09.620Z,40
2017-12-16T14:12:21.153Z,40
2017-12-16T14:13:30.964Z,40
2017-12-16T14:14:42.068Z,40
2017-12-16T14:15:52.134Z,35
2017-12-16T14:17:02.026Z,30
2017-12-16T14:18:13.430Z,30
2017-12-16T14:19:23.112Z,30
2017-12-16T14:20:33.672Z,30
2017-12-16T14:21:48.709Z,30
2017-12-16T14:22:58.548Z,25
2017-12-16T14:24:08.887Z,25
2017-12-16T14:25:18.442Z,25
2017-12-16T14:26:28.549Z,25
2017-12-16T14:27:38.645Z,20
2017-12-16T14:28:48.714Z,20
2017-12-16T14:29:58.525Z,20
2017-12-16T14:31:08.611Z,20
2017-12-16T14:32:18.177Z,15
2017-12-16T14:33:28.256Z,15
2017-12-16T14:34:38.356Z,15
2017-12-16T14:35:48.422Z,15
2017-12-16T14:36:58.212Z,10
2017-12-16T14:38:08.276Z,10
2017-12-16T14:39:18.284Z,10
2017-12-16T14:40:28.350Z,10
2017-12-16T14:41:37.910Z,10
2017-12-16T14:42:48.000Z,10
2017-12-16T14:43:57.520Z,10
2017-12-16T14:45:07.592Z,5
2017-12-16T14:46:17.675Z,5
2017-12-16T14:47:27.520Z,5
2017-12-16T14:48:37.600Z,5
2017-12-16T14:49:47.399Z,5
2017-12-16T14:50:58.553Z,5
2017-12-16T14:52:08.877Z,5
2017-12-16T14:53:18.702Z,5
2017-12-16T14:54:27.975Z,5
2017-12-16T14:55:38.046Z,5
2017-12-16T14:56:48.156Z,5
2017-12-16T14:57:57.862Z,0
2017-12-16T14:59:08.002Z,0
2017-12-16T15:00:22.683Z,0
2017-12-16T15:01:32.888Z,0
2017-12-16T15:02:42.757Z,0
2017-12-16T15:03:54.235Z,0
2017-12-16T15:05:04.056Z,0
2017-12-16T15:06:14.110Z,0
2017-12-16T15:07:24.183Z,0
2017-12-16T15:08:34.254Z,0
2017-12-16T15:09:44.347Z,0
2017-12-16T15:10:54.451Z,0
2017-12-16T15:12:04.267Z,0
2017-12-16T15:13:14.342Z,0
2017-12-16T15:14:25.971Z,0
2017-12-16T15:15:36.443Z,0
2017-12-16T15:16:46.295Z,0
2017-12-16T15:17:56.416Z,0
2017-12-16T15:19:08.335Z,0
2017-12-16T15:20:18.397Z,0
2017-12-16T15:21:28.481Z,0
2017-12-16T15:22:38.326Z,0
2017-12-16T15:23:48.152Z,0
2017-12-16T15:24:57.697Z,0
2017-12-16T15:26:07.808Z,0
2017-12-16T15:27:17.345Z,0
2017-12-16T15:28:27.464Z,0
2017-12-16T15:29:37.539Z,0
2017-12-16T15:30:47.591Z,0
2017-12-16T15:31:57.122Z,0
2017-12-16T15:33:07.215Z,0
2017-12-16T15:34:16.755Z,0
2017-12-16T15:35:26.559Z,0
2017-12-16T15:36:36.119Z,0
2017-12-16T15:37:45.952Z,0
2017-12-16T15:38:55.782Z,0
2017-12-16T15:40:05.325Z,0
2017-12-16T15:41:15.398Z,0
2017-12-16T15:42:25.455Z,0
2017-12-16T15:43:34.992Z,0
2017-12-16T15:44:45.094Z,0
2017-12-16T15:45:55.166Z,0
2017-12-16T15:47:05.245Z,0
2017-12-16T15:48:15.111Z,0
2017-12-16T15:49:26.212Z,0
2017-12-16T15:50:36.288Z,0
2017-12-16T15:51:46.363Z,0
2017-12-16T15:52:56.568Z,0
2017-12-16T15:54:07.461Z,0
2017-12-16T15:55:16.998Z,0
2017-12-16T15:56:26.801Z,0
2017-12-16T15:57:36.604Z,0
2017-12-16T15:58:46.658Z,0
2017-12-16T15:59:56.504Z,0
2017-12-16T16:01:06.570Z,0
2017-12-16T16:02:16.153Z,0
2017-12-16T16:03:25.442Z,0
2017-12-16T16:04:35.500Z,0
2017-12-16T16:05:45.601Z,0
2017-12-16T16:06:55.423Z,0
2017-12-16T16:08:05.552Z,0
2017-12-16T16:09:15.353Z,0
2017-12-16T16:10:26.675Z,0
2017-12-16T16:11:36.789Z,0
2017-12-16T16:12:46.846Z,0
2017-12-16T16:13:58.088Z,0
2017-12-16T16:15:08.169Z,0
2017-12-16T16:16:18.226Z,0
2017-12-16T16:17:28.026Z,0
2017-12-16T16:18:37.579Z,0
2017-12-16T16:19:47.630Z,0
2017-12-16T16:21:00.842Z,0
2017-12-16T16:22:10.893Z,0
2017-12-16T16:23:21.056Z,0
2017-12-16T16:24:31.129Z,0
2017-12-16T16:25:41.206Z,0
2017-12-16T16:26:51.280Z,0
2017-12-16T16:28:01.372Z,0
2017-12-16T16:29:10.973Z,0
2017-12-16T16:30:21.040Z,0
2017-12-16T16:31:30.858Z,0
2017-12-16T16:32:40.657Z,0
2017-12-16T16:33:50.462Z,0
2017-12-16T16:35:02.598Z,0
2017-12-16T16:36:11.909Z,0
2017-12-16T16:37:21.725Z,0
2017-12-16T16:38:32.439Z,0
2017-12-16T16:39:42.500Z,0
2017-12-16T16:40:52.668Z,0
2017-12-16T16:42:02.464Z,0
2017-12-16T16:43:12.278Z,0
2017-12-16T16:44:22.099Z,0
2017-12-16T16:45:32.156Z,0
2017-12-16T16:46:42.224Z,0
2017-12-16T16:47:53.337Z,0
2017-12-16T16:49:03.148Z,0
2017-12-16T16:50:13.224Z,0
2017-12-16T16:51:24.907Z,0
2017-12-16T16:52:35.010Z,0
2017-12-16T16:53:45.070Z,0
2017-12-16T16:54:55.157Z,0
2017-12-16T16:56:05.258Z,0
2017-12-16T16:57:15.331Z,0
2017-12-16T16:58:25.196Z,0
2017-12-16T16:59:34.991Z,0
2017-12-16T17:00:44.528Z,0
2017-12-16T17:01:54.593Z,0
2017-12-16T17:03:04.668Z,0
2017-12-16T17:04:14.779Z,0
2017-12-16T17:05:25.162Z,0
2017-12-16T17:06:35.921Z,0
2017-12-16T17:07:46.204Z,0
2017-12-16T17:08:57.453Z,0
2017-12-16T17:10:21.876Z,0
2017-12-16T17:11:34.447Z,0
2017-12-16T17:12:44.519Z,0
2017-12-16T17:13:54.586Z,0
2017-12-16T17:15:04.380Z,0
2017-12-16T17:16:15.473Z,0
2017-12-16T17:17:25.537Z,0
2017-12-16T17:18:35.360Z,0
2017-12-16T17:19:45.538Z,0
2017-12-16T17:20:57.279Z,0
2017-12-16T17:22:07.128Z,0
2017-12-16T17:23:17.461Z,0
2017-12-16T17:24:27.531Z,0
2017-12-16T17:25:38.515Z,0
2017-12-16T17:26:48.607Z,0
2017-12-16T17:27:58.722Z,0
2017-12-16T17:29:08.784Z,0